Time;durP1;ratioP1;P1;durP2;ratioP2;P2;SDS_P1;SDS_P2;PMS_P1;PMS_P2;Temp;Humidity;BMP_temperature;BMP_pressure;BME280_temperature;BME280_humidity;BME280_pressure;Samples;Min_cycle;Max_cycle;Signal;HPM_P1;HPM_P2
2023/05/14 00:00:51;;;;;;;12.23;5.30;;;;;;;;;;4978697;28;20027;-83
2023/05/14 00:03:17;;;;;;;19.90;10.30;;;;;;;;;;4975286;28;20031;-87
2023/05/14 00:05:43;;;;;;;12.40;6.15;;;;;;;;;;4958774;28;20035;-86
2023/05/14 00:08:18;;;;;;;18.95;9.52;;;;;;;;;;4962557;28;20402;-88
2023/05/14 00:10:44;;;;;;;18.98;8.27;;;;;;;;;;4977050;28;20019;-86
2023/05/14 00:13:10;;;;;;;12.15;6.25;;;;;;;;;;4961027;28;20011;-86
2023/05/14 00:15:38;;;;;;;14.85;8.88;;;;;;;;;;4957997;28;20027;-86
2023/05/14 00:18:05;;;;;;;13.60;9.85;;;;;;;;;;4977991;28;20107;-86
2023/05/14 00:20:31;;;;;;;9.68;5.82;;;;;;;;;;4970926;28;20022;-85
2023/05/14 00:23:00;;;;;;;16.15;11.02;;;;;;;;;;4976964;28;20118;-89
2023/05/14 00:25:30;;;;;;;14.13;10.55;;;;;;;;;;4967367;28;20041;-85
2023/05/14 00:27:56;;;;;;;14.68;9.95;;;;;;;;;;4970336;28;20031;-84
2023/05/14 00:30:22;;;;;;;17.33;11.63;;;;;;;;;;4956565;28;20019;-84
2023/05/14 00:32:48;;;;;;;17.15;8.00;;;;;;;;;;4969505;28;20410;-85
2023/05/14 00:35:14;;;;;;;15.25;6.90;;;;;;;;;;4954590;28;20558;-83
2023/05/14 00:37:40;;;;;;;18.05;10.85;;;;;;;;;;4954534;28;20023;-84
2023/05/14 00:40:07;;;;;;;17.27;12.40;;;;;;;;;;4966495;28;20039;-84
2023/05/14 00:42:33;;;;;;;14.95;8.32;;;;;;;;;;4971347;28;20442;-86
2023/05/14 00:44:59;;;;;;;9.77;6.75;;;;;;;;;;4976780;28;20054;-85
2023/05/14 00:47:26;;;;;;;12.85;8.95;;;;;;;;;;4966613;28;20035;-85
2023/05/14 00:49:54;;;;;;;14.00;9.00;;;;;;;;;;4961333;28;20703;-85
2023/05/14 00:52:26;;;;;;;12.02;9.38;;;;;;;;;;4960936;28;20035;-83
2023/05/14 00:54:53;;;;;;;13.63;10.80;;;;;;;;;;4955958;28;20400;-83
2023/05/14 00:57:20;;;;;;;15.02;11.32;;;;;;;;;;4962713;28;20015;-85
2023/05/14 00:59:46;;;;;;;10.57;7.05;;;;;;;;;;4974991;28;20128;-82
2023/05/14 01:02:13;;;;;;;10.82;6.85;;;;;;;;;;4978133;28;20027;-83
2023/05/14 01:04:40;;;;;;;15.50;10.52;;;;;;;;;;4985391;28;20097;-83
2023/05/14 01:07:12;;;;;;;14.55;8.18;;;;;;;;;;4977020;28;20098;-86
2023/05/14 01:09:37;;;;;;;14.75;10.65;;;;;;;;;;4972498;28;20031;-86
2023/05/14 01:12:10;;;;;;;13.25;7.63;;;;;;;;;;4964487;28;20027;-85
2023/05/14 01:14:54;;;;;;;11.18;7.30;;;;;;;;;;4962196;28;20035;-85
2023/05/14 01:17:21;;;;;;;12.82;9.63;;;;;;;;;;4949402;28;20053;-85
2023/05/14 01:19:48;;;;;;;13.70;8.25;;;;;;;;;;4968990;28;20027;-86
2023/05/14 01:22:15;;;;;;;15.20;11.57;;;;;;;;;;4967528;28;20146;-86
2023/05/14 01:24:43;;;;;;;12.02;8.18;;;;;;;;;;4967077;28;20024;-84
2023/05/14 01:27:09;;;;;;;13.95;9.80;;;;;;;;;;4954647;28;20151;-85
2023/05/14 01:29:36;;;;;;;16.65;10.77;;;;;;;;;;4971509;28;20051;-84
2023/05/14 01:32:05;;;;;;;13.32;10.00;;;;;;;;;;4974330;28;20026;-86
2023/05/14 01:34:31;;;;;;;11.80;8.70;;;;;;;;;;4961988;28;20039;-85
2023/05/14 01:36:57;;;;;;;12.45;6.55;;;;;;;;;;4976659;28;20042;-84
2023/05/14 01:39:33;;;;;;;19.65;10.70;;;;;;;;;;4981213;28;20023;-85
2023/05/14 01:41:59;;;;;;;14.95;8.23;;;;;;;;;;4971195;28;20023;-82
2023/05/14 01:44:25;;;;;;;15.95;12.20;;;;;;;;;;4979250;28;20031;-83
2023/05/14 01:46:52;;;;;;;14.05;8.25;;;;;;;;;;4975428;28;20030;-81
2023/05/14 01:49:18;;;;;;;10.82;6.30;;;;;;;;;;4972411;28;20038;-83
2023/05/14 01:51:44;;;;;;;13.05;7.05;;;;;;;;;;4972148;28;20019;-83
2023/05/14 01:54:10;;;;;;;13.63;9.32;;;;;;;;;;4963598;28;20030;-85
2023/05/14 01:56:36;;;;;;;17.27;12.48;;;;;;;;;;4973565;28;20416;-87
2023/05/14 01:59:02;;;;;;;14.38;10.90;;;;;;;;;;4976742;28;20043;-86
2023/05/14 02:01:28;;;;;;;21.75;14.55;;;;;;;;;;4977081;28;20027;-84
2023/05/14 02:03:54;;;;;;;16.13;10.65;;;;;;;;;;4960511;28;20469;-85
2023/05/14 02:06:20;;;;;;;15.57;11.38;;;;;;;;;;4976431;28;20113;-87
2023/05/14 02:08:46;;;;;;;12.82;8.88;;;;;;;;;;4957598;28;20094;-85
2023/05/14 02:11:12;;;;;;;21.55;16.00;;;;;;;;;;4956919;28;20030;-84
2023/05/14 02:13:38;;;;;;;19.25;15.63;;;;;;;;;;4946016;28;20673;-84
2023/05/14 02:16:05;;;;;;;19.80;13.98;;;;;;;;;;4962352;28;20085;-85
2023/05/14 02:18:31;;;;;;;14.63;9.23;;;;;;;;;;4955643;28;20027;-85
2023/05/14 02:20:57;;;;;;;17.58;13.45;;;;;;;;;;4967579;28;20532;-84
2023/05/14 02:23:23;;;;;;;19.70;14.35;;;;;;;;;;4956595;28;20079;-86
2023/05/14 02:25:49;;;;;;;13.80;10.93;;;;;;;;;;4953214;28;20042;-85
2023/05/14 02:28:15;;;;;;;20.50;14.05;;;;;;;;;;4975061;28;20035;-83
2023/05/14 02:30:41;;;;;;;16.63;12.77;;;;;;;;;;4974152;28;20054;-85
2023/05/14 02:33:07;;;;;;;21.80;15.65;;;;;;;;;;4978954;28;20129;-84
2023/05/14 02:35:33;;;;;;;20.73;14.93;;;;;;;;;;4972239;28;20054;-85
2023/05/14 02:37:59;;;;;;;19.67;14.73;;;;;;;;;;4963571;28;20062;-83
2023/05/14 02:40:25;;;;;;;25.45;16.75;;;;;;;;;;4964362;28;20026;-82
2023/05/14 02:42:51;;;;;;;18.67;13.13;;;;;;;;;;4978478;28;20107;-82
2023/05/14 02:45:17;;;;;;;15.82;12.48;;;;;;;;;;4964984;28;20690;-84
2023/05/14 02:47:44;;;;;;;25.30;16.52;;;;;;;;;;4969996;28;20071;-84
2023/05/14 02:50:10;;;;;;;20.25;15.30;;;;;;;;;;4943120;28;20038;-84
2023/05/14 02:52:36;;;;;;;16.75;12.85;;;;;;;;;;4975737;28;20041;-84
2023/05/14 02:55:03;;;;;;;19.73;16.48;;;;;;;;;;4974709;28;20030;-84
2023/05/14 02:57:29;;;;;;;16.10;11.68;;;;;;;;;;4975691;28;20015;-85
2023/05/14 02:59:55;;;;;;;22.73;18.48;;;;;;;;;;4974541;28;20134;-82
2023/05/14 03:02:21;;;;;;;20.50;12.45;;;;;;;;;;4967842;28;20031;-83
2023/05/14 03:04:47;;;;;;;23.40;17.10;;;;;;;;;;4960586;28;20067;-84
2023/05/14 03:07:13;;;;;;;20.95;14.20;;;;;;;;;;4961577;28;20042;-83
2023/05/14 03:09:39;;;;;;;18.83;14.95;;;;;;;;;;4970914;28;20026;-83
2023/05/14 03:12:06;;;;;;;24.75;17.40;;;;;;;;;;4972486;28;20473;-83
2023/05/14 03:14:32;;;;;;;22.02;15.77;;;;;;;;;;4973932;28;20027;-83
2023/05/14 03:16:58;;;;;;;20.23;15.50;;;;;;;;;;4972615;28;20027;-84
2023/05/14 03:19:24;;;;;;;23.17;17.00;;;;;;;;;;4970952;28;20580;-82
2023/05/14 03:21:50;;;;;;;24.45;17.35;;;;;;;;;;4971047;28;20026;-82
2023/05/14 03:24:16;;;;;;;20.80;16.55;;;;;;;;;;4959081;28;20143;-83
2023/05/14 03:26:42;;;;;;;20.50;16.05;;;;;;;;;;4968609;28;20035;-83
2023/05/14 03:29:09;;;;;;;22.48;15.10;;;;;;;;;;4954609;28;20087;-82
2023/05/14 03:31:35;;;;;;;21.80;16.38;;;;;;;;;;4967314;28;20318;-83
2023/05/14 03:34:02;;;;;;;22.05;15.32;;;;;;;;;;4961947;28;20038;-82
2023/05/14 03:36:28;;;;;;;22.38;17.33;;;;;;;;;;4953236;29;20059;-82
2023/05/14 03:38:57;;;;;;;22.38;15.98;;;;;;;;;;4970624;28;20035;-82
2023/05/14 03:41:26;;;;;;;22.80;16.92;;;;;;;;;;4962652;28;20023;-82
2023/05/14 03:43:52;;;;;;;22.42;15.40;;;;;;;;;;4968365;28;20110;-82
2023/05/14 03:46:19;;;;;;;26.13;18.83;;;;;;;;;;4967793;28;20046;-87
2023/05/14 03:48:45;;;;;;;15.98;13.05;;;;;;;;;;4969125;28;20020;-84
2023/05/14 03:51:11;;;;;;;24.23;17.60;;;;;;;;;;4963534;28;20034;-84
2023/05/14 03:53:37;;;;;;;23.20;17.05;;;;;;;;;;4968206;28;20031;-82
2023/05/14 03:56:07;;;;;;;21.30;13.60;;;;;;;;;;4975645;28;20050;-84
2023/05/14 03:58:33;;;;;;;;;;;;;;;;;;4973800;28;20095;-83
2023/05/14 04:00:59;;;;;;;23.90;15.98;;;;;;;;;;4984430;28;19906;-83
2023/05/14 04:03:25;;;;;;;19.77;16.42;;;;;;;;;;4979368;28;20031;-83
2023/05/14 04:05:51;;;;;;;23.38;19.20;;;;;;;;;;4970906;28;20097;-82
2023/05/14 04:08:17;;;;;;;21.55;15.75;;;;;;;;;;4965725;28;20034;-82
2023/05/14 04:10:43;;;;;;;23.95;16.35;;;;;;;;;;4967723;28;20568;-84
2023/05/14 04:13:09;;;;;;;25.35;18.20;;;;;;;;;;4969555;28;20055;-84
2023/05/14 04:15:38;;;;;;;22.88;17.45;;;;;;;;;;4970729;28;20026;-85
2023/05/14 04:18:04;;;;;;;24.65;18.58;;;;;;;;;;4971240;28;20023;-85
2023/05/14 04:20:30;;;;;;;24.13;18.02;;;;;;;;;;4968013;28;20095;-82
2023/05/14 04:22:56;;;;;;;21.27;14.85;;;;;;;;;;4970842;28;20034;-85
2023/05/14 04:25:22;;;;;;;24.10;16.75;;;;;;;;;;4968399;28;20031;-83
2023/05/14 04:27:49;;;;;;;22.38;16.65;;;;;;;;;;4952706;28;20026;-85
2023/05/14 04:30:15;;;;;;;22.88;16.60;;;;;;;;;;4964163;28;20441;-84
2023/05/14 04:32:41;;;;;;;21.92;16.25;;;;;;;;;;4964415;28;20795;-85
2023/05/14 04:35:11;;;;;;;22.13;16.35;;;;;;;;;;4965253;28;20101;-84
2023/05/14 04:37:39;;;;;;;;;;;;;;;;;;4965362;28;20489;-85
2023/05/14 04:40:06;;;;;;;27.90;18.23;;;;;;;;;;4971386;28;19906;-86
2023/05/14 04:42:32;;;;;;;24.70;19.08;;;;;;;;;;4960256;28;20075;-83
2023/05/14 04:44:59;;;;;;;22.45;15.98;;;;;;;;;;4962570;28;20039;-84
2023/05/14 04:47:25;;;;;;;19.38;16.40;;;;;;;;;;4969092;28;20030;-85
2023/05/14 04:49:51;;;;;;;20.77;16.25;;;;;;;;;;4947287;28;20046;-84
2023/05/14 04:52:17;;;;;;;25.10;18.80;;;;;;;;;;4960933;28;20389;-82
2023/05/14 04:54:44;;;;;;;27.98;20.92;;;;;;;;;;4953630;28;20031;-82
2023/05/14 04:57:13;;;;;;;24.10;16.45;;;;;;;;;;4971340;28;20057;-86
2023/05/14 04:59:39;;;;;;;21.73;14.95;;;;;;;;;;4960293;28;20465;-85
2023/05/14 05:02:08;;;;;;;26.65;17.95;;;;;;;;;;4970971;28;20469;-85
2023/05/14 05:04:35;;;;;;;19.35;15.40;;;;;;;;;;4959138;28;20031;-84
2023/05/14 05:07:01;;;;;;;24.55;17.58;;;;;;;;;;4948626;28;20552;-84
2023/05/14 05:09:27;;;;;;;21.20;15.77;;;;;;;;;;4960410;28;20042;-82
2023/05/14 05:11:53;;;;;;;15.93;9.55;;;;;;;;;;4967688;28;20486;-85
2023/05/14 05:14:19;;;;;;;15.55;10.93;;;;;;;;;;4960142;28;20057;-83
2023/05/14 05:16:48;;;;;;;16.90;11.75;;;;;;;;;;4969409;28;20030;-82
2023/05/14 05:19:14;;;;;;;14.50;12.32;;;;;;;;;;4966764;28;20039;-84
2023/05/14 05:21:40;;;;;;;19.83;13.52;;;;;;;;;;4967528;28;20022;-83
2023/05/14 05:24:07;;;;;;;19.38;9.20;;;;;;;;;;4961265;28;20450;-86
2023/05/14 05:26:35;;;;;;;21.73;16.58;;;;;;;;;;4973868;28;20023;-84
2023/05/14 05:29:01;;;;;;;19.95;12.35;;;;;;;;;;4963712;28;20035;-85
2023/05/14 05:31:27;;;;;;;16.40;11.73;;;;;;;;;;4970978;28;20027;-84
2023/05/14 05:33:53;;;;;;;16.38;13.57;;;;;;;;;;4978769;28;20086;-84
2023/05/14 05:36:19;;;;;;;21.35;15.60;;;;;;;;;;4962961;28;20054;-86
2023/05/14 05:38:46;;;;;;;17.85;12.98;;;;;;;;;;4973893;28;20022;-85
2023/05/14 05:41:12;;;;;;;25.25;16.45;;;;;;;;;;4960892;28;20019;-87
2023/05/14 05:43:38;;;;;;;19.60;13.43;;;;;;;;;;4975666;28;20034;-85
2023/05/14 05:46:04;;;;;;;21.20;15.25;;;;;;;;;;4960498;28;20042;-84
2023/05/14 05:48:31;;;;;;;20.38;14.93;;;;;;;;;;4958955;29;20144;-85
2023/05/14 05:50:57;;;;;;;24.02;16.75;;;;;;;;;;4966154;28;20039;-85
2023/05/14 05:53:23;;;;;;;16.60;11.73;;;;;;;;;;4965901;28;20030;-85
2023/05/14 05:55:50;;;;;;;24.95;17.08;;;;;;;;;;4949431;28;20085;-85
2023/05/14 05:58:16;;;;;;;17.40;13.75;;;;;;;;;;4954204;28;20034;-84
2023/05/14 06:00:42;;;;;;;17.65;13.55;;;;;;;;;;4972724;28;20015;-84
2023/05/14 06:03:08;;;;;;;22.75;15.95;;;;;;;;;;4972699;28;20027;-83
2023/05/14 06:05:36;;;;;;;18.92;15.35;;;;;;;;;;4945687;29;20466;-84
2023/05/14 06:08:04;;;;;;;19.80;14.38;;;;;;;;;;4964609;28;20035;-82
2023/05/14 06:10:30;;;;;;;14.70;10.35;;;;;;;;;;4971006;28;20496;-83
2023/05/14 06:12:57;;;;;;;18.05;11.90;;;;;;;;;;4973108;28;20050;-85
2023/05/14 06:15:25;;;;;;;15.32;12.07;;;;;;;;;;4977999;28;20023;-86
2023/05/14 06:17:52;;;;;;;18.33;11.43;;;;;;;;;;4979998;28;20023;-83
2023/05/14 06:20:18;;;;;;;17.10;12.07;;;;;;;;;;4980867;28;20030;-83
2023/05/14 06:22:45;;;;;;;13.63;10.35;;;;;;;;;;4983195;28;20046;-85
2023/05/14 06:25:11;;;;;;;14.52;11.45;;;;;;;;;;4972735;28;20039;-84
2023/05/14 06:27:38;;;;;;;17.13;12.23;;;;;;;;;;4950002;28;20540;-84
2023/05/14 06:30:05;;;;;;;14.95;12.02;;;;;;;;;;4972959;28;20030;-84
2023/05/14 06:32:31;;;;;;;18.73;12.85;;;;;;;;;;4973591;28;20382;-86
2023/05/14 06:34:57;;;;;;;23.10;14.60;;;;;;;;;;4950755;29;20055;-83
2023/05/14 06:37:23;;;;;;;15.45;10.43;;;;;;;;;;4952751;29;20028;-84
2023/05/14 06:39:50;;;;;;;17.67;11.50;;;;;;;;;;4947361;29;20023;-84
2023/05/14 06:42:16;;;;;;;14.35;11.50;;;;;;;;;;4949057;29;20035;-82
2023/05/14 06:44:42;;;;;;;7.85;4.78;;;;;;;;;;4956372;28;20040;-83
2023/05/14 06:47:08;;;;;;;6.00;3.30;;;;;;;;;;4951776;29;20055;-84
2023/05/14 06:49:35;;;;;;;6.35;3.28;;;;;;;;;;4950786;29;20101;-83
2023/05/14 06:52:01;;;;;;;17.88;13.70;;;;;;;;;;4958045;29;20170;-82
2023/05/14 06:54:27;;;;;;;15.93;12.35;;;;;;;;;;4956886;29;20055;-84
2023/05/14 06:56:53;;;;;;;15.90;10.57;;;;;;;;;;4958418;29;20038;-83
2023/05/14 06:59:20;;;;;;;12.75;7.40;;;;;;;;;;4953946;29;20070;-84
2023/05/14 07:01:46;;;;;;;16.50;12.60;;;;;;;;;;4940344;29;20035;-84
2023/05/14 07:04:13;;;;;;;15.52;10.60;;;;;;;;;;4958895;29;20019;-84
2023/05/14 07:06:39;;;;;;;17.40;11.20;;;;;;;;;;4954666;29;20068;-84
2023/05/14 07:09:07;;;;;;;15.10;11.32;;;;;;;;;;4932179;29;20034;-86
2023/05/14 07:11:35;;;;;;;17.27;10.25;;;;;;;;;;4947719;29;20106;-86
2023/05/14 07:14:01;;;;;;;16.73;10.50;;;;;;;;;;4932074;29;20034;-84
2023/05/14 07:16:27;;;;;;;11.63;8.13;;;;;;;;;;4956358;29;20024;-85
2023/05/14 07:18:53;;;;;;;11.00;6.30;;;;;;;;;;4949680;29;20032;-85
2023/05/14 07:21:19;;;;;;;9.45;5.90;;;;;;;;;;4960926;29;20111;-85
2023/05/14 07:23:45;;;;;;;16.73;11.55;;;;;;;;;;4963946;29;20027;-85
2023/05/14 07:26:11;;;;;;;15.15;10.65;;;;;;;;;;4954338;29;20399;-86
2023/05/14 07:28:37;;;;;;;13.95;8.48;;;;;;;;;;4943634;29;20105;-86
2023/05/14 07:31:07;;;;;;;14.65;9.38;;;;;;;;;;4958331;29;20031;-85
2023/05/14 07:33:35;;;;;;;14.05;9.20;;;;;;;;;;4951245;29;20030;-86
2023/05/14 07:36:01;;;;;;;13.18;9.98;;;;;;;;;;4977483;28;20059;-85
2023/05/14 07:38:27;;;;;;;10.73;7.82;;;;;;;;;;4957657;28;20098;-86
2023/05/14 07:40:53;;;;;;;11.48;6.10;;;;;;;;;;4966543;28;20054;-85
2023/05/14 07:43:19;;;;;;;12.65;9.65;;;;;;;;;;4967102;28;20042;-83
2023/05/14 07:45:45;;;;;;;14.77;9.30;;;;;;;;;;4973129;28;20043;-85
2023/05/14 07:48:11;;;;;;;9.10;5.38;;;;;;;;;;4955359;28;20023;-85
2023/05/14 07:50:38;;;;;;;14.68;8.48;;;;;;;;;;4978105;28;20054;-84
2023/05/14 07:53:04;;;;;;;10.90;7.00;;;;;;;;;;4970732;28;20027;-84
2023/05/14 07:55:30;;;;;;;14.10;8.38;;;;;;;;;;4973749;28;20027;-85
2023/05/14 07:57:56;;;;;;;10.30;6.55;;;;;;;;;;4987367;28;20031;-84
2023/05/14 08:00:22;;;;;;;13.15;7.40;;;;;;;;;;4988175;28;20027;-87
2023/05/14 08:02:49;;;;;;;11.95;8.10;;;;;;;;;;4986752;28;20031;-85
2023/05/14 08:05:20;;;;;;;7.55;5.40;;;;;;;;;;4975310;28;20015;-86
2023/05/14 08:07:46;;;;;;;8.65;5.50;;;;;;;;;;4984195;28;20057;-85
2023/05/14 08:10:13;;;;;;;12.52;8.00;;;;;;;;;;4976803;28;20031;-85
2023/05/14 08:12:39;;;;;;;10.90;5.68;;;;;;;;;;4971935;28;20019;-84
2023/05/14 08:15:06;;;;;;;6.95;4.13;;;;;;;;;;4975196;28;20122;-83
2023/05/14 08:17:32;;;;;;;10.50;6.90;;;;;;;;;;4972922;28;20058;-85
2023/05/14 08:19:59;;;;;;;13.18;6.90;;;;;;;;;;4961614;28;20027;-85
2023/05/14 08:22:26;;;;;;;9.02;6.20;;;;;;;;;;4979006;28;20030;-86
2023/05/14 08:24:52;;;;;;;7.25;5.03;;;;;;;;;;4973083;28;20126;-86
2023/05/14 08:27:20;;;;;;;7.93;5.18;;;;;;;;;;4967319;28;20062;-85
2023/05/14 08:29:46;;;;;;;8.18;4.45;;;;;;;;;;4980977;28;20125;-87
2023/05/14 08:32:19;;;;;;;10.63;5.40;;;;;;;;;;4984817;28;20033;-86
2023/05/14 08:34:45;;;;;;;9.00;4.78;;;;;;;;;;4984819;28;20066;-85
2023/05/14 08:37:13;;;;;;;9.38;4.57;;;;;;;;;;4989000;28;20018;-85
2023/05/14 08:39:39;;;;;;;9.07;5.13;;;;;;;;;;4985926;28;20059;-86
2023/05/14 08:42:07;;;;;;;6.70;3.22;;;;;;;;;;4982835;28;20370;-84
2023/05/14 08:44:38;;;;;;;6.13;3.20;;;;;;;;;;4964501;28;20019;-86
2023/05/14 08:47:15;;;;;;;10.50;4.68;;;;;;;;;;4978273;28;20035;-86
2023/05/14 08:49:43;;;;;;;7.18;3.40;;;;;;;;;;4982754;28;20322;-83
2023/05/14 08:52:09;;;;;;;7.07;3.58;;;;;;;;;;4966893;28;20089;-86
2023/05/14 08:54:36;;;;;;;6.55;2.78;;;;;;;;;;4973707;28;20035;-85
2023/05/14 08:57:05;;;;;;;5.45;2.78;;;;;;;;;;4983888;28;20031;-87
2023/05/14 08:59:32;;;;;;;4.65;3.13;;;;;;;;;;4978920;28;20027;-86
2023/05/14 09:02:01;;;;;;;9.38;2.92;;;;;;;;;;4971285;28;20031;-86
2023/05/14 09:04:28;;;;;;;6.87;2.60;;;;;;;;;;4979793;28;20485;-87
2023/05/14 09:06:55;;;;;;;5.93;3.53;;;;;;;;;;4969093;28;20037;-86
2023/05/14 09:09:22;;;;;;;6.05;3.47;;;;;;;;;;4976669;28;20034;-86
2023/05/14 09:11:49;;;;;;;6.97;3.83;;;;;;;;;;4962273;28;20035;-81
2023/05/14 09:14:15;;;;;;;5.65;2.83;;;;;;;;;;4961731;28;20115;-81
2023/05/14 09:16:44;;;;;;;10.57;3.60;;;;;;;;;;4951235;28;20039;-80
2023/05/14 09:19:12;;;;;;;6.82;3.63;;;;;;;;;;4964374;28;20023;-81
2023/05/14 09:21:39;;;;;;;4.07;2.50;;;;;;;;;;4957600;28;20617;-79
2023/05/14 09:24:05;;;;;;;5.88;3.03;;;;;;;;;;4958638;28;20015;-80
2023/05/14 09:26:32;;;;;;;5.60;3.17;;;;;;;;;;4955389;28;20066;-82
2023/05/14 09:29:02;;;;;;;6.55;3.65;;;;;;;;;;4955813;28;20081;-80
2023/05/14 09:31:28;;;;;;;;;;;;;;;;;;4968225;28;20027;-81
2023/05/14 09:33:54;;;;;;;8.55;4.30;;;;;;;;;;4957253;28;19906;-81
2023/05/14 09:36:20;;;;;;;6.45;3.25;;;;;;;;;;4968116;28;20057;-80
2023/05/14 09:38:46;;;;;;;6.40;2.40;;;;;;;;;;4957168;28;20027;-80
2023/05/14 09:41:12;;;;;;;7.00;3.50;;;;;;;;;;4953623;28;20118;-80
2023/05/14 09:43:38;;;;;;;4.85;2.70;;;;;;;;;;4953151;28;20042;-81
2023/05/14 09:46:04;;;;;;;5.53;3.22;;;;;;;;;;4946293;28;20622;-80
2023/05/14 09:48:30;;;;;;;7.20;3.13;;;;;;;;;;4957225;28;20118;-80
2023/05/14 09:50:56;;;;;;;5.68;3.65;;;;;;;;;;4961881;28;20106;-79
2023/05/14 09:53:22;;;;;;;9.88;4.53;;;;;;;;;;4954868;28;20023;-79
2023/05/14 09:55:49;;;;;;;7.32;3.92;;;;;;;;;;4964624;28;20559;-82
2023/05/14 09:58:15;;;;;;;5.93;3.35;;;;;;;;;;4951068;28;20030;-82
2023/05/14 10:00:45;;;;;;;7.70;3.45;;;;;;;;;;4969536;28;20032;-81
2023/05/14 10:03:12;;;;;;;7.93;3.65;;;;;;;;;;4951734;29;20028;-81
2023/05/14 10:05:39;;;;;;;8.07;3.90;;;;;;;;;;4965435;28;20019;-82
2023/05/14 10:08:10;;;;;;;7.88;3.65;;;;;;;;;;4963779;28;20043;-81
2023/05/14 10:10:37;;;;;;;4.95;3.08;;;;;;;;;;4958600;28;20027;-80
2023/05/14 10:13:04;;;;;;;7.57;3.55;;;;;;;;;;4952482;28;20086;-81
2023/05/14 10:15:33;;;;;;;9.20;4.40;;;;;;;;;;4962509;28;20142;-79
2023/05/14 10:18:03;;;;;;;7.43;3.63;;;;;;;;;;4955800;28;20039;-80
2023/05/14 10:20:30;;;;;;;6.15;3.00;;;;;;;;;;4957827;28;20321;-79
2023/05/14 10:22:57;;;;;;;6.63;3.10;;;;;;;;;;4966821;28;20023;-82
2023/05/14 10:25:24;;;;;;;6.68;2.88;;;;;;;;;;4966372;28;20069;-80
2023/05/14 10:27:50;;;;;;;5.18;2.88;;;;;;;;;;4952056;28;20030;-79
2023/05/14 10:30:21;;;;;;;7.88;3.22;;;;;;;;;;4960502;28;20032;-80
2023/05/14 10:32:47;;;;;;;4.85;2.40;;;;;;;;;;4968624;28;20081;-80
2023/05/14 10:35:19;;;;;;;6.43;2.70;;;;;;;;;;4955484;28;20089;-82
2023/05/14 10:37:45;;;;;;;4.78;2.55;;;;;;;;;;4949111;28;20039;-81
2023/05/14 10:40:12;;;;;;;3.95;2.40;;;;;;;;;;4959150;28;20020;-81
2023/05/14 10:42:39;;;;;;;4.40;2.80;;;;;;;;;;4969511;28;20038;-81
2023/05/14 10:45:07;;;;;;;6.78;2.95;;;;;;;;;;4952857;28;20086;-80
2023/05/14 10:47:37;;;;;;;5.22;3.30;;;;;;;;;;4971292;28;20034;-83
2023/05/14 10:50:03;;;;;;;;;;;;;;;;;;4981377;28;20034;-80
2023/05/14 10:52:29;;;;;;;5.55;2.80;;;;;;;;;;4956352;28;19906;-81
2023/05/14 10:55:01;;;;;;;3.97;2.58;;;;;;;;;;4959643;28;20023;-80
2023/05/14 10:57:28;;;;;;;6.70;2.70;;;;;;;;;;4970541;28;20026;-80
2023/05/14 10:59:55;;;;;;;6.53;3.17;;;;;;;;;;4952718;28;20553;-80
2023/05/14 11:02:25;;;;;;;5.38;2.35;;;;;;;;;;4969699;28;20029;-80
2023/05/14 11:05:02;;;;;;;6.25;2.85;;;;;;;;;;4952971;28;20062;-81
2023/05/14 11:07:33;;;;;;;6.70;3.00;;;;;;;;;;4967614;28;20053;-79
2023/05/14 11:10:03;;;;;;;3.55;2.25;;;;;;;;;;4955140;28;20117;-79
2023/05/14 11:12:30;;;;;;;4.93;2.25;;;;;;;;;;4964868;28;20015;-81
2023/05/14 11:15:02;;;;;;;3.67;2.28;;;;;;;;;;4938752;29;20178;-80
2023/05/14 11:17:29;;;;;;;5.43;2.70;;;;;;;;;;4939372;28;20082;-80
2023/05/14 11:19:55;;;;;;;4.50;2.50;;;;;;;;;;4965065;28;20134;-79
2023/05/14 11:22:21;;;;;;;5.50;2.55;;;;;;;;;;4953837;28;20093;-81
2023/05/14 11:24:48;;;;;;;6.50;2.47;;;;;;;;;;4941243;28;20019;-82
2023/05/14 11:27:14;;;;;;;6.38;2.80;;;;;;;;;;4954040;28;20082;-82
2023/05/14 11:29:45;;;;;;;8.27;3.25;;;;;;;;;;4966468;28;20098;-80
2023/05/14 11:32:12;;;;;;;6.85;2.95;;;;;;;;;;4953021;28;20056;-81
2023/05/14 11:34:38;;;;;;;5.60;2.80;;;;;;;;;;4963456;28;20043;-80
2023/05/14 11:37:05;;;;;;;3.28;2.00;;;;;;;;;;4964667;28;20174;-81
2023/05/14 11:39:37;;;;;;;4.43;2.58;;;;;;;;;;4945666;29;20031;-80
2023/05/14 11:42:15;;;;;;;5.75;2.75;;;;;;;;;;4959814;28;20059;-80
2023/05/14 11:44:43;;;;;;;5.10;2.35;;;;;;;;;;4969627;28;20030;-80
2023/05/14 11:47:09;;;;;;;4.82;2.53;;;;;;;;;;4969619;28;20490;-80
2023/05/14 11:49:36;;;;;;;5.68;2.33;;;;;;;;;;4968426;28;20022;-80
2023/05/14 11:52:03;;;;;;;3.33;2.00;;;;;;;;;;4954253;28;20027;-80
2023/05/14 11:54:30;;;;;;;7.68;3.13;;;;;;;;;;4970598;28;20646;-81
2023/05/14 11:56:56;;;;;;;5.40;2.90;;;;;;;;;;4968507;28;20426;-80
2023/05/14 11:59:27;;;;;;;5.53;2.72;;;;;;;;;;4969606;28;20023;-81
2023/05/14 12:01:53;;;;;;;4.97;2.95;;;;;;;;;;4948312;28;20030;-80
2023/05/14 12:04:21;;;;;;;7.28;3.35;;;;;;;;;;4971322;28;20031;-80
2023/05/14 12:06:50;;;;;;;5.47;2.83;;;;;;;;;;4956621;28;20042;-79
2023/05/14 12:09:17;;;;;;;7.03;4.07;;;;;;;;;;4965296;28;20041;-80
2023/05/14 12:11:45;;;;;;;4.13;2.38;;;;;;;;;;4954891;28;20027;-80
2023/05/14 12:14:15;;;;;;;5.60;2.92;;;;;;;;;;4948038;28;20042;-79
2023/05/14 12:16:41;;;;;;;6.07;2.75;;;;;;;;;;4971301;28;20030;-81
2023/05/14 12:19:09;;;;;;;6.88;3.78;;;;;;;;;;4959891;28;20086;-79
2023/05/14 12:21:35;;;;;;;6.80;3.42;;;;;;;;;;4953383;28;20019;-80
2023/05/14 12:24:01;;;;;;;5.72;2.95;;;;;;;;;;4963136;28;20059;-81
2023/05/14 12:26:28;;;;;;;9.40;3.60;;;;;;;;;;4965143;28;20039;-81
2023/05/14 12:29:00;;;;;;;6.28;2.83;;;;;;;;;;4953324;29;20131;-79
2023/05/14 12:31:28;;;;;;;8.07;4.35;;;;;;;;;;4969445;28;20026;-80
2023/05/14 12:33:54;;;;;;;6.40;3.25;;;;;;;;;;4968952;28;20034;-80
2023/05/14 12:36:23;;;;;;;5.07;2.63;;;;;;;;;;4966835;28;20138;-80
2023/05/14 12:38:50;;;;;;;5.88;2.92;;;;;;;;;;4957728;28;20023;-78
2023/05/14 12:41:17;;;;;;;8.35;3.47;;;;;;;;;;4968417;28;20077;-79
2023/05/14 12:43:43;;;;;;;3.70;2.42;;;;;;;;;;4967599;28;20031;-80
2023/05/14 12:46:09;;;;;;;6.22;3.28;;;;;;;;;;4962345;28;20046;-81
2023/05/14 12:48:35;;;;;;;12.45;5.10;;;;;;;;;;4968687;28;20030;-81
2023/05/14 12:51:01;;;;;;;9.73;4.30;;;;;;;;;;4970660;28;20019;-81
2023/05/14 12:53:34;;;;;;;9.73;4.97;;;;;;;;;;4977037;28;20030;-85
2023/05/14 12:56:02;;;;;;;7.75;4.40;;;;;;;;;;4982527;28;20011;-83
2023/05/14 12:58:28;;;;;;;10.40;4.22;;;;;;;;;;4982967;28;20033;-85
2023/05/14 13:00:55;;;;;;;7.47;3.30;;;;;;;;;;4972148;28;20034;-83
2023/05/14 13:03:21;;;;;;;6.13;2.85;;;;;;;;;;4969614;28;20054;-83
2023/05/14 13:05:47;;;;;;;6.07;3.60;;;;;;;;;;4960502;28;20046;-85
2023/05/14 13:08:16;;;;;;;6.78;3.85;;;;;;;;;;4966406;28;20028;-83
2023/05/14 13:10:43;;;;;;;5.95;3.85;;;;;;;;;;4969613;28;20034;-85
2023/05/14 13:13:09;;;;;;;6.32;3.42;;;;;;;;;;4951382;28;20655;-82
2023/05/14 13:15:35;;;;;;;6.45;3.03;;;;;;;;;;4969587;28;20134;-84
2023/05/14 13:18:03;;;;;;;6.68;3.60;;;;;;;;;;4964826;28;20027;-85
2023/05/14 13:20:29;;;;;;;9.60;3.70;;;;;;;;;;4959554;28;20027;-84
2023/05/14 13:22:56;;;;;;;6.68;3.30;;;;;;;;;;4966084;28;20027;-83
2023/05/14 13:25:22;;;;;;;8.45;3.97;;;;;;;;;;4970634;28;20034;-84
2023/05/14 13:27:52;;;;;;;10.43;4.05;;;;;;;;;;4959930;28;20019;-85
2023/05/14 13:30:19;;;;;;;8.60;4.20;;;;;;;;;;4969856;28;20038;-84
2023/05/14 13:32:45;;;;;;;7.57;3.03;;;;;;;;;;4964873;28;20266;-85
2023/05/14 13:35:11;;;;;;;5.95;2.80;;;;;;;;;;4959445;28;20478;-84
2023/05/14 13:37:37;;;;;;;4.00;2.25;;;;;;;;;;4968399;28;20037;-85
2023/05/14 13:40:07;;;;;;;7.30;3.47;;;;;;;;;;4972205;28;20058;-85
2023/05/14 13:42:33;;;;;;;6.87;3.50;;;;;;;;;;4942902;28;20049;-83
2023/05/14 13:44:59;;;;;;;7.43;2.95;;;;;;;;;;4956044;28;20275;-86
2023/05/14 13:47:26;;;;;;;7.25;3.13;;;;;;;;;;4969539;28;20053;-84
2023/05/14 13:49:52;;;;;;;6.75;3.75;;;;;;;;;;4971553;28;20081;-83
2023/05/14 13:52:18;;;;;;;5.90;3.33;;;;;;;;;;4955400;28;20478;-82
2023/05/14 13:54:47;;;;;;;6.50;3.40;;;;;;;;;;4959042;28;20026;-82
2023/05/14 13:57:13;;;;;;;9.07;3.55;;;;;;;;;;4955706;28;20042;-84
2023/05/14 13:59:39;;;;;;;7.50;3.10;;;;;;;;;;4958681;28;20152;-85
2023/05/14 14:02:06;;;;;;;7.72;3.17;;;;;;;;;;4976530;28;20019;-85
2023/05/14 14:04:32;;;;;;;6.07;2.72;;;;;;;;;;4976405;28;20030;-85
2023/05/14 14:06:58;;;;;;;5.88;3.05;;;;;;;;;;4975164;28;20038;-85
2023/05/14 14:09:24;;;;;;;8.70;3.13;;;;;;;;;;4958517;28;20027;-84
2023/05/14 14:11:50;;;;;;;5.05;2.75;;;;;;;;;;4977024;28;20082;-83
2023/05/14 14:14:17;;;;;;;9.02;4.18;;;;;;;;;;4973303;28;20031;-83
2023/05/14 14:16:45;;;;;;;8.30;3.65;;;;;;;;;;4938964;29;20035;-82
2023/05/14 14:19:11;;;;;;;6.80;3.70;;;;;;;;;;4965029;28;20039;-83
2023/05/14 14:21:41;;;;;;;6.38;3.22;;;;;;;;;;4961432;28;20077;-83
2023/05/14 14:24:07;;;;;;;9.27;4.03;;;;;;;;;;4944147;28;20528;-83
2023/05/14 14:26:33;;;;;;;7.70;3.60;;;;;;;;;;4949279;28;20137;-83
2023/05/14 14:29:03;;;;;;;7.10;2.90;;;;;;;;;;4974295;28;20839;-83